Time;durP1;ratioP1;P1;durP2;ratioP2;P2;SDS_P1;SDS_P2;PMS_P1;PMS_P2;Temp;Humidity;BMP_temperature;BMP_pressure;BME280_temperature;BME280_humidity;BME280_pressure;Samples;Min_cycle;Max_cycle;Signal;HPM_P1;HPM_P2
2021/12/23 00:01:33;;;;;;;52.33;24.85;;;;;;;-0.92;54.67;101523.00;5027820;28;20125;-73
2021/12/23 00:04:00;;;;;;;39.22;18.90;;;;;;;-1.18;55.41;101524.09;5012223;28;20058;-74
2021/12/23 00:06:26;;;;;;;53.00;25.42;;;;;;;-0.44;53.07;101519.09;5013288;28;20139;-75
2021/12/23 00:08:53;;;;;;;53.78;26.58;;;;;;;-1.09;54.64;101514.97;5012278;28;20048;-75
2021/12/23 00:11:19;;;;;;;53.70;24.88;;;;;;;-0.59;53.14;101508.41;5012479;28;20065;-73
2021/12/23 00:13:59;;;;;;;55.47;24.95;;;;;;;-0.92;54.46;101501.94;5012948;28;20113;-74
2021/12/23 00:16:41;;;;;;;54.72;25.48;;;;;;;-1.95;56.91;101502.72;5012381;28;20061;-74
2021/12/23 00:19:35;;;;;;;53.38;24.70;;;;;;;-1.48;55.56;101493.78;5012817;28;20088;-74
2021/12/23 00:24:49;;;;;;;53.92;23.58;;;;;;;-1.84;56.77;101504.06;5001613;28;20056;-73
2021/12/23 00:27:16;;;;;;;53.38;24.95;;;;;;;-1.45;56.34;101497.16;5013034;28;20129;-74
2021/12/23 00:29:42;;;;;;;56.70;25.27;;;;;;;-1.26;56.02;101491.13;5012286;28;20236;-75
2021/12/23 00:32:09;;;;;;;52.55;26.00;;;;;;;-1.49;55.97;101485.06;5012888;28;20129;-74
2021/12/23 00:34:37;;;;;;;50.10;23.80;;;;;;;-1.07;55.11;101486.78;5012167;28;20121;-74
2021/12/23 00:37:08;;;;;;;51.30;24.92;;;;;;;-0.73;53.53;101480.03;5011565;28;20533;-74
2021/12/23 00:39:35;;;;;;;49.85;22.05;;;;;;;-0.79;54.21;101485.56;5011671;28;20108;-74
2021/12/23 00:42:07;;;;;;;45.75;24.60;;;;;;;-0.55;53.44;101473.91;5012554;28;20076;-74
2021/12/23 00:44:35;;;;;;;51.08;23.27;;;;;;;-0.74;53.57;101473.91;5012529;28;20081;-74
2021/12/23 00:47:03;;;;;;;49.72;23.33;;;;;;;-0.79;53.40;101470.59;5014490;28;20064;-74
2021/12/23 00:49:29;;;;;;;49.42;24.10;;;;;;;-0.61;52.59;101466.28;5014799;28;20129;-74
2021/12/23 00:51:57;;;;;;;47.53;23.60;;;;;;;-1.05;54.16;101468.28;5015374;28;20141;-74
2021/12/23 00:54:24;;;;;;;49.83;21.27;;;;;;;-1.53;55.22;101466.84;5015576;28;20495;-74
2021/12/23 00:56:51;;;;;;;46.28;23.77;;;;;;;-0.91;53.93;101461.50;5015805;28;20121;-74
2021/12/23 00:59:18;;;;;;;45.38;20.70;;;;;;;-1.53;54.80;101457.16;5016000;28;20041;-73
2021/12/23 01:01:46;;;;;;;47.05;22.88;;;;;;;-0.98;54.73;101465.31;5015684;28;20129;-73
2021/12/23 01:04:14;;;;;;;41.80;21.95;;;;;;;-1.93;56.69;101460.56;5015487;28;20042;-73
2021/12/23 01:06:40;;;;;;;41.17;21.50;;;;;;;-2.18;56.94;101442.28;5015717;28;20045;-75
2021/12/23 01:09:07;;;;;;;43.40;20.92;;;;;;;-2.14;57.00;101443.88;5015877;28;20446;-74
2021/12/23 01:11:34;;;;;;;49.10;22.75;;;;;;;-1.54;55.95;101444.94;5015636;28;20496;-74
2021/12/23 01:14:24;;;;;;;50.58;22.13;;;;;;;-1.71;55.70;101435.09;5014100;28;20049;-75
2021/12/23 01:17:10;;;;;;;54.47;22.85;;;;;;;-1.27;55.15;101428.84;5014886;28;20121;-72
2021/12/23 01:19:39;;;;;;;46.90;22.15;;;;;;;-1.54;55.19;101439.66;5014326;28;20121;-73
2021/12/23 01:22:07;;;;;;;53.30;22.83;;;;;;;-2.31;57.05;101438.41;5012696;28;20056;-74
2021/12/23 01:24:34;;;;;;;45.75;21.58;;;;;;;-1.15;54.83;101434.44;5013361;28;20125;-73
2021/12/23 01:27:01;;;;;;;41.28;22.58;;;;;;;-1.67;55.24;101439.31;5013239;28;20092;-73
2021/12/23 01:29:28;;;;;;;48.42;23.08;;;;;;;-1.32;54.81;101444.00;5014101;28;20104;-73
2021/12/23 01:31:54;;;;;;;47.67;22.48;;;;;;;-1.11;53.66;101436.97;5013428;28;20132;-73
2021/12/23 01:34:21;;;;;;;50.13;22.25;;;;;;;-1.68;55.98;101437.63;5013920;28;20054;-73
2021/12/23 01:36:47;;;;;;;40.50;21.73;;;;;;;-2.25;56.98;101438.19;5015119;28;20105;-73
2021/12/23 01:39:14;;;;;;;45.45;22.92;;;;;;;-1.47;55.74;101435.84;5014687;28;20128;-74
2021/12/23 01:41:40;;;;;;;44.38;22.77;;;;;;;-1.74;55.95;101431.75;5015373;28;20121;-74
2021/12/23 01:44:07;;;;;;;44.78;22.30;;;;;;;-1.85;56.03;101424.31;5015049;28;20062;-74
2021/12/23 01:46:33;;;;;;;47.25;24.25;;;;;;;-2.13;57.30;101425.44;5015367;28;20048;-73
2021/12/23 01:49:00;;;;;;;51.10;23.27;;;;;;;-1.88;56.40;101427.06;5014885;28;20066;-74
2021/12/23 01:51:26;;;;;;;44.95;21.48;;;;;;;-1.56;55.73;101420.44;5014156;28;20107;-74
2021/12/23 01:53:53;;;;;;;44.00;22.77;;;;;;;-2.04;57.21;101420.69;5015138;28;20129;-74
2021/12/23 01:56:19;;;;;;;49.63;22.75;;;;;;;-1.52;55.50;101422.03;5013466;28;20125;-74
2021/12/23 01:58:46;;;;;;;47.15;23.38;;;;;;;-1.23;55.24;101417.28;5014877;28;20073;-74
2021/12/23 02:01:13;;;;;;;46.45;22.27;;;;;;;-1.24;54.46;101407.66;5014291;28;20045;-74
2021/12/23 02:03:40;;;;;;;44.05;22.20;;;;;;;-1.31;54.31;101409.72;5014513;28;20041;-74
2021/12/23 02:09:48;;;;;;;47.92;22.52;;;;;;;-1.79;55.84;101391.63;5013951;28;20137;-74
2021/12/23 02:12:16;;;;;;;51.80;23.15;;;;;;;-1.36;54.98;101390.66;5013317;28;20554;-74
2021/12/23 02:14:43;;;;;;;41.30;21.13;;;;;;;-1.74;55.54;101385.25;5013465;28;20053;-74
2021/12/23 02:17:09;;;;;;;55.15;21.70;;;;;;;-1.40;54.72;101379.41;5013106;28;20048;-74
2021/12/23 02:19:36;;;;;;;50.17;22.73;;;;;;;-2.33;56.56;101378.91;5014653;28;20077;-74
2021/12/23 02:22:03;;;;;;;49.30;22.10;;;;;;;-1.74;55.88;101374.72;5014074;28;20065;-74
2021/12/23 02:24:30;;;;;;;44.08;21.58;;;;;;;-2.05;56.04;101362.00;5014485;28;20056;-74
2021/12/23 02:26:57;;;;;;;44.88;22.95;;;;;;;-2.09;56.73;101360.44;5014975;28;20118;-74
2021/12/23 02:29:24;;;;;;;47.10;22.38;;;;;;;-1.35;54.95;101362.53;5000337;28;20140;-74
2021/12/23 02:31:53;;;;;;;49.80;21.48;;;;;;;-1.72;54.79;101366.75;5013601;28;20057;-74
2021/12/23 02:34:21;;;;;;;41.70;22.17;;;;;;;-1.41;54.45;101361.88;5013323;28;20120;-74
2021/12/23 02:36:50;;;;;;;43.40;20.75;;;;;;;-1.44;54.58;101351.50;5012899;28;20061;-74
2021/12/23 02:39:17;;;;;;;41.70;22.02;;;;;;;-1.38;54.37;101340.69;5012275;28;20053;-74
2021/12/23 02:41:43;;;;;;;46.25;22.60;;;;;;;-1.16;53.97;101351.13;5012602;28;20149;-74
2021/12/23 02:44:11;;;;;;;47.60;23.00;;;;;;;-1.48;54.66;101330.63;5012750;28;20137;-74
2021/12/23 02:46:38;;;;;;;50.25;24.42;;;;;;;-1.40;54.28;101318.88;5012783;28;20070;-74
2021/12/23 02:49:04;;;;;;;50.22;22.90;;;;;;;-2.40;57.01;101318.78;5012219;28;20042;-74
2021/12/23 02:51:31;;;;;;;48.05;23.10;;;;;;;-2.61;57.71;101310.00;5013242;28;20058;-74
2021/12/23 02:53:58;;;;;;;48.42;23.02;;;;;;;-1.33;54.67;101294.88;5013325;28;20153;-74
2021/12/23 02:56:24;;;;;;;48.42;22.70;;;;;;;-2.43;57.37;101293.47;5005492;28;20141;-74
2021/12/23 02:58:51;;;;;;;55.17;23.33;;;;;;;-1.84;55.98;101291.03;5012975;28;20129;-74
2021/12/23 03:01:19;;;;;;;52.63;24.10;;;;;;;-2.42;57.71;101282.03;5013961;28;20479;-74
2021/12/23 03:03:47;;;;;;;46.20;24.25;;;;;;;-2.85;58.57;101272.41;5013684;28;20050;-74
2021/12/23 03:06:18;;;;;;;46.33;24.33;;;;;;;-2.31;57.16;101272.84;5007925;28;20070;-73
2021/12/23 03:08:47;;;;;;;49.90;23.92;;;;;;;-1.90;55.87;101269.31;5012834;28;20073;-74
2021/12/23 03:11:16;;;;;;;46.45;23.75;;;;;;;-1.66;55.63;101271.78;5011626;28;20077;-74
2021/12/23 03:13:43;;;;;;;49.15;24.23;;;;;;;-1.52;55.20;101269.41;5012890;28;20573;-74
2021/12/23 03:16:12;;;;;;;49.92;24.30;;;;;;;-1.92;55.98;101265.06;5016012;28;20151;-74
2021/12/23 03:18:39;;;;;;;49.67;23.60;;;;;;;-1.83;56.18;101248.88;5015441;28;20058;-74
2021/12/23 03:21:06;;;;;;;53.47;24.30;;;;;;;-1.88;56.13;101253.50;5013781;28;20137;-74
2021/12/23 03:23:32;;;;;;;53.83;25.33;;;;;;;-2.02;57.14;101248.81;5013543;28;20080;-74
2021/12/23 03:26:00;;;;;;;51.05;24.92;;;;;;;-2.57;58.14;101245.91;5009190;28;20379;-74
2021/12/23 03:28:26;;;;;;;44.42;22.17;;;;;;;-2.22;57.46;101235.69;5012794;28;20525;-74
2021/12/23 03:30:53;;;;;;;50.72;22.85;;;;;;;-2.01;56.46;101224.22;5011034;28;20119;-74
2021/12/23 03:33:19;;;;;;;57.28;26.85;;;;;;;-1.69;55.69;101220.16;5012518;28;20053;-74
2021/12/23 03:35:46;;;;;;;52.00;25.40;;;;;;;-2.37;57.75;101218.81;5010876;28;20060;-74
2021/12/23 03:38:14;;;;;;;48.25;24.45;;;;;;;-1.63;55.91;101216.41;5012594;28;20084;-74
2021/12/23 03:40:41;;;;;;;53.42;26.23;;;;;;;-1.43;55.44;101213.72;5012237;28;20136;-74
2021/12/23 03:43:11;;;;;;;58.22;24.92;;;;;;;-1.52;55.08;101206.25;5027021;28;20050;-74
2021/12/23 03:45:38;;;;;;;53.28;24.73;;;;;;;-2.54;57.56;101198.50;5011418;28;20097;-74
2021/12/23 03:48:05;;;;;;;49.00;25.33;;;;;;;-2.60;58.10;101189.09;5011813;28;20124;-74
2021/12/23 03:50:31;;;;;;;50.67;23.70;;;;;;;-2.02;56.28;101196.25;5013287;28;20142;-74
2021/12/23 03:52:58;;;;;;;56.60;25.05;;;;;;;-1.88;56.57;101193.00;5012958;28;20049;-74
2021/12/23 03:55:24;;;;;;;51.25;24.55;;;;;;;-1.77;55.76;101180.22;5013179;28;20137;-74
2021/12/23 03:57:50;;;;;;;54.65;25.50;;;;;;;-1.88;55.54;101169.34;5013132;28;20061;-74
2021/12/23 04:00:19;;;;;;;56.42;26.40;;;;;;;-1.80;56.06;101163.72;5027428;28;20065;-74
2021/12/23 04:02:47;;;;;;;51.03;24.35;;;;;;;-1.56;54.41;101157.31;5012584;28;20112;-74
2021/12/23 04:05:14;;;;;;;49.83;24.70;;;;;;;-1.82;55.72;101160.28;5011455;28;20050;-74
2021/12/23 04:07:40;;;;;;;57.75;25.58;;;;;;;-1.54;55.20;101144.97;5012223;28;20070;-74
2021/12/23 04:10:10;;;;;;;54.58;25.83;;;;;;;-1.53;54.77;101151.06;5010574;28;20069;-74
2021/12/23 04:12:37;;;;;;;57.15;23.30;;;;;;;-1.77;54.58;101145.16;5010991;28;20046;-74
2021/12/23 04:15:04;;;;;;;57.58;26.50;;;;;;;-1.38;53.88;101139.81;5011801;28;20078;-74
2021/12/23 04:17:36;;;;;;;47.55;24.95;;;;;;;-1.25;53.61;101124.28;5011748;28;20073;-74
2021/12/23 04:20:20;;;;;;;52.42;26.15;;;;;;;-0.86;53.18;101121.47;5009749;28;20062;-74
2021/12/23 04:22:52;;;;;;;55.95;26.50;;;;;;;-1.71;55.02;101129.97;5015045;28;20100;-74
2021/12/23 04:25:20;;;;;;;56.20;25.70;;;;;;;-1.29;53.84;101141.16;5015790;28;20140;-75
2021/12/23 04:27:48;;;;;;;52.83;27.38;;;;;;;-1.01;53.03;101131.00;5015524;28;20499;-74
2021/12/23 04:30:16;;;;;;;48.15;24.67;;;;;;;-1.95;55.84;101131.94;5015385;28;20105;-73
2021/12/23 04:32:43;;;;;;;56.45;26.20;;;;;;;-1.99;55.76;101122.50;5015246;28;20406;-74
2021/12/23 04:35:10;;;;;;;53.33;25.75;;;;;;;-1.90;55.44;101116.78;5013987;28;20155;-74
2021/12/23 04:37:36;;;;;;;59.63;27.75;;;;;;;-1.93;56.12;101118.72;5012048;28;20480;-74
2021/12/23 04:40:06;;;;;;;61.28;26.92;;;;;;;-2.21;56.64;101112.06;5013849;28;20506;-73
2021/12/23 04:42:33;;;;;;;56.40;27.27;;;;;;;-1.27;54.23;101105.06;5014096;28;20122;-73
2021/12/23 04:45:00;;;;;;;54.13;26.77;;;;;;;-1.88;55.23;101100.97;5014726;28;20069;-73
2021/12/23 04:47:26;;;;;;;57.80;27.88;;;;;;;-1.21;54.27;101094.25;5014537;28;20156;-73
2021/12/23 04:49:53;;;;;;;61.88;27.42;;;;;;;-1.04;53.40;101089.00;5014920;28;20077;-73
2021/12/23 04:52:19;;;;;;;63.47;28.35;;;;;;;-1.88;55.23;101086.03;5013465;28;20117;-73
2021/12/23 04:54:45;;;;;;;59.97;27.25;;;;;;;-1.51;54.35;101084.28;5014469;28;20475;-73
2021/12/23 04:57:12;;;;;;;54.50;26.85;;;;;;;-1.20;53.69;101072.25;5015341;28;20129;-73
2021/12/23 04:59:38;;;;;;;55.15;27.00;;;;;;;-0.76;52.48;101074.44;5015157;28;20064;-73
2021/12/23 05:02:05;;;;;;;56.78;26.75;;;;;;;-1.99;56.39;101077.78;5014944;28;20132;-73
2021/12/23 05:04:31;;;;;;;56.03;26.17;;;;;;;-1.56;55.15;101065.25;5012679;28;20517;-73
2021/12/23 05:06:58;;;;;;;63.83;28.42;;;;;;;-1.53;54.25;101067.72;5015062;28;20144;-73
2021/12/23 05:09:24;;;;;;;56.13;26.95;;;;;;;-0.85;53.04;101067.00;5014076;28;20570;-73
2021/12/23 05:11:51;;;;;;;58.42;26.77;;;;;;;-1.05;53.09;101046.97;5013816;28;20069;-73
2021/12/23 05:14:17;;;;;;;61.83;29.13;;;;;;;-0.95;53.28;101027.97;5013133;28;20548;-73
2021/12/23 05:16:43;;;;;;;60.70;27.90;;;;;;;-0.94;53.22;101031.47;5014008;28;20129;-73
2021/12/23 05:19:10;;;;;;;56.05;27.95;;;;;;;-1.57;54.91;101034.59;5014168;28;20042;-73
2021/12/23 05:21:36;;;;;;;53.78;27.10;;;;;;;-1.42;54.15;101033.84;5013612;28;20050;-73
2021/12/23 05:24:04;;;;;;;59.28;29.02;;;;;;;-0.91;53.49;101049.75;5013016;28;20046;-73
2021/12/23 05:26:30;;;;;;;55.08;26.80;;;;;;;-0.93;52.89;101051.59;5013268;28;20060;-73
2021/12/23 05:28:57;;;;;;;59.53;27.98;;;;;;;-0.87;53.49;101053.06;5013650;28;20076;-73
2021/12/23 05:31:23;;;;;;;64.22;29.10;;;;;;;-0.86;52.98;101038.97;5013210;28;20130;-73
2021/12/23 05:33:50;;;;;;;64.82;27.40;;;;;;;-1.34;53.96;101036.09;5013958;28;20062;-73
2021/12/23 05:36:16;;;;;;;61.35;28.25;;;;;;;-1.78;55.27;101025.09;5013427;28;20054;-73
2021/12/23 05:38:43;;;;;;;63.78;28.80;;;;;;;-1.48;55.24;101015.72;5013983;28;20530;-73
2021/12/23 05:41:09;;;;;;;58.75;26.83;;;;;;;-1.32;54.65;101007.06;5013820;28;20070;-73
2021/12/23 05:43:36;;;;;;;57.22;27.98;;;;;;;-1.21;54.32;101018.75;5014152;28;20498;-74
2021/12/23 05:46:02;;;;;;;63.67;28.52;;;;;;;-1.36;54.28;101011.63;5014067;28;20137;-73
2021/12/23 05:48:29;;;;;;;58.53;27.63;;;;;;;-1.57;55.34;101008.28;5013369;28;20211;-73
2021/12/23 05:50:55;;;;;;;56.47;26.55;;;;;;;-1.90;55.71;101011.59;5013565;28;20124;-73
2021/12/23 05:53:21;;;;;;;58.83;27.88;;;;;;;-1.98;56.02;100999.78;5014032;28;20133;-73
2021/12/23 05:55:48;;;;;;;62.05;28.30;;;;;;;-1.69;55.32;101003.63;5014666;28;20460;-73
2021/12/23 05:58:14;;;;;;;60.28;27.65;;;;;;;-1.63;55.61;100998.06;5013952;28;20066;-73
2021/12/23 06:00:41;;;;;;;67.60;29.45;;;;;;;-1.67;55.27;100993.88;5013285;28;20052;-75
2021/12/23 06:03:07;;;;;;;67.65;30.33;;;;;;;-1.35;54.16;100988.81;5014656;28;20049;-73
2021/12/23 06:05:34;;;;;;;57.78;26.98;;;;;;;-1.66;55.06;100987.69;5013673;28;20072;-73
2021/12/23 06:08:00;;;;;;;60.67;27.75;;;;;;;-2.38;57.25;100991.09;5013786;28;20065;-74
2021/12/23 06:10:27;;;;;;;61.42;27.50;;;;;;;-1.30;55.44;100973.63;5006722;28;20570;-74
2021/12/23 06:12:53;;;;;;;60.20;28.83;;;;;;;-1.65;55.26;100963.91;5013461;28;20046;-73
2021/12/23 06:15:20;;;;;;;59.22;28.92;;;;;;;-1.40;54.30;100968.00;5012920;28;20072;-73
2021/12/23 06:17:47;;;;;;;66.43;27.98;;;;;;;-1.07;53.92;100959.28;5013336;28;20074;-74
2021/12/23 06:20:14;;;;;;;58.50;28.75;;;;;;;-0.98;53.48;100957.03;5013012;28;20042;-74
2021/12/23 06:22:40;;;;;;;59.13;28.33;;;;;;;-1.07;54.36;100954.03;5013031;28;20076;-73
2021/12/23 06:25:09;;;;;;;59.63;28.35;;;;;;;-0.92;53.43;100959.34;5013437;28;20073;-74
2021/12/23 06:27:36;;;;;;;58.80;29.08;;;;;;;-0.89;53.22;100958.31;5013176;28;20103;-73
2021/12/23 06:30:14;;;;;;;59.65;26.55;;;;;;;-1.46;54.51;100948.09;5011411;28;20046;-74
2021/12/23 06:32:40;;;;;;;60.17;28.58;;;;;;;-1.50;54.97;100945.69;5013038;28;20533;-73
2021/12/23 06:35:07;;;;;;;60.45;27.75;;;;;;;-1.15;53.91;100941.25;5012880;28;20072;-73
2021/12/23 06:37:34;;;;;;;55.78;27.40;;;;;;;-2.30;56.82;100939.06;5011790;28;20801;-73
2021/12/23 06:40:00;;;;;;;70.50;28.75;;;;;;;-1.70;56.42;100941.41;5012694;28;20066;-74
2021/12/23 06:42:29;;;;;;;61.97;28.10;;;;;;;-0.85;53.87;100932.66;5010989;28;20054;-73
2021/12/23 06:44:56;;;;;;;58.55;27.25;;;;;;;-0.93;53.34;100939.19;5011614;28;20115;-74
2021/12/23 06:47:22;;;;;;;67.57;29.63;;;;;;;-0.77;53.32;100941.03;5011174;28;20557;-74
2021/12/23 06:49:48;;;;;;;53.78;26.63;;;;;;;-1.05;53.89;100936.38;5010246;28;20152;-74
2021/12/23 06:52:15;;;;;;;55.60;27.30;;;;;;;-1.38;54.56;100919.59;5012971;28;20133;-73
2021/12/23 06:54:46;;;;;;;58.22;27.38;;;;;;;-0.73;53.33;100926.75;5013211;28;20074;-74
2021/12/23 06:57:13;;;;;;;65.47;28.63;;;;;;;-1.07;54.03;100923.25;5012078;28;20041;-74
2021/12/23 06:59:40;;;;;;;58.15;28.13;;;;;;;-0.38;51.92;100921.34;5012356;28;20124;-74
2021/12/23 07:02:07;;;;;;;53.85;25.85;;;;;;;-0.53;52.05;100900.16;5012540;28;20042;-74
2021/12/23 07:04:35;;;;;;;57.00;26.88;;;;;;;-0.66;52.37;100888.59;5012523;28;20046;-73
2021/12/23 07:07:10;;;;;;;70.97;27.20;;;;;;;0.17;50.51;100886.56;5010921;28;20068;-74
2021/12/23 07:09:39;;;;;;;54.00;26.85;;;;;;;-1.20;53.67;100902.00;5012228;28;20482;-74
2021/12/23 07:12:08;;;;;;;56.45;25.27;;;;;;;-1.05;53.54;100902.13;5013197;28;20061;-74
2021/12/23 07:14:36;;;;;;;61.85;27.92;;;;;;;-1.12;54.67;100909.50;5012364;28;20338;-74
2021/12/23 07:17:04;;;;;;;54.35;26.98;;;;;;;-0.74;53.47;100914.53;5012436;28;20100;-73
2021/12/23 07:19:30;;;;;;;54.90;26.27;;;;;;;-0.99;53.81;100915.84;5013277;28;20044;-73
2021/12/23 07:21:57;;;;;;;57.28;25.98;;;;;;;-1.05;53.60;100920.56;5010611;28;20077;-73
2021/12/23 07:24:23;;;;;;;52.17;24.77;;;;;;;-1.40;54.34;100908.31;5011234;28;20472;-73
2021/12/23 07:26:50;;;;;;;52.67;26.70;;;;;;;-1.24;54.72;100889.06;5012063;28;20052;-73
2021/12/23 07:29:17;;;;;;;64.38;26.92;;;;;;;-0.62;53.23;100876.94;5011537;28;20080;-73
2021/12/23 07:31:43;;;;;;;55.47;26.30;;;;;;;-1.19;54.18;100881.81;5010963;28;20457;-73
2021/12/23 07:34:10;;;;;;;54.15;25.35;;;;;;;-1.34;54.30;100874.69;5011106;28;20120;-73
2021/12/23 07:36:36;;;;;;;55.28;25.27;;;;;;;-0.61;52.60;100877.78;5012133;28;20125;-73
2021/12/23 07:39:09;;;;;;;54.05;25.75;;;;;;;-0.61;52.40;100883.06;5010657;28;20114;-73
2021/12/23 07:41:56;;;;;;;50.88;23.90;;;;;;;-1.07;53.00;100865.34;5011348;28;20075;-73
2021/12/23 07:44:34;;;;;;;52.30;24.42;;;;;;;-1.33;54.12;100881.66;5012170;28;20487;-73
2021/12/23 07:47:01;;;;;;;53.53;24.65;;;;;;;-1.13;53.84;100878.81;5008766;28;20066;-73
2021/12/23 07:49:27;;;;;;;57.75;26.17;;;;;;;-0.97;52.96;100878.88;5011378;28;20050;-73
2021/12/23 07:51:55;;;;;;;50.83;24.85;;;;;;;-0.66;52.66;100883.31;5012737;28;20046;-73
2021/12/23 07:54:21;;;;;;;57.78;26.10;;;;;;;-0.56;52.03;100871.34;5010374;28;20080;-73
2021/12/23 07:56:47;;;;;;;53.22;26.17;;;;;;;-0.80;53.30;100875.34;5011959;28;20073;-73
2021/12/23 07:59:14;;;;;;;56.78;27.38;;;;;;;-1.52;54.82;100873.88;5012236;28;20149;-73
2021/12/23 08:01:40;;;;;;;56.35;25.65;;;;;;;-1.20;54.09;100864.28;5012795;28;20053;-73
2021/12/23 08:04:07;;;;;;;56.45;26.05;;;;;;;-1.15;53.83;100865.75;5012952;28;20188;-73
2021/12/23 08:06:33;;;;;;;54.25;26.00;;;;;;;-1.01;53.44;100858.91;5013111;28;20502;-73
2021/12/23 08:09:00;;;;;;;50.78;25.20;;;;;;;-1.03;53.36;100845.81;5012099;28;20042;-73
2021/12/23 08:11:26;;;;;;;54.47;25.75;;;;;;;-1.34;54.61;100840.47;5013464;28;20112;-73
2021/12/23 08:13:53;;;;;;;53.03;24.92;;;;;;;-1.72;55.24;100841.53;5012676;28;20132;-73
2021/12/23 08:16:19;;;;;;;58.35;25.50;;;;;;;-1.32;55.67;100828.94;5012950;28;20046;-73
2021/12/23 08:18:46;;;;;;;59.67;27.35;;;;;;;-0.89;53.72;100821.34;5012060;28;20061;-73
2021/12/23 08:21:12;;;;;;;53.17;26.17;;;;;;;-0.59;53.16;100817.97;5012077;28;20045;-73
2021/12/23 08:23:39;;;;;;;54.78;24.45;;;;;;;-1.05;53.98;100820.50;5011896;28;20145;-73
2021/12/23 08:26:11;;;;;;;53.25;26.23;;;;;;;-1.34;53.97;100819.44;5011705;28;20155;-73
2021/12/23 08:28:37;;;;;;;52.50;25.08;;;;;;;-1.44;54.77;100798.88;5013013;28;20509;-73
2021/12/23 08:31:04;;;;;;;54.60;25.50;;;;;;;-0.99;53.92;100804.34;5012554;28;20075;-73
2021/12/23 08:33:30;;;;;;;53.75;24.63;;;;;;;-1.20;54.33;100806.38;5008398;28;20045;-73
2021/12/23 08:35:57;;;;;;;47.13;23.95;;;;;;;-0.84;53.42;100800.06;5012496;28;20518;-73
2021/12/23 08:38:24;;;;;;;50.90;24.67;;;;;;;-0.52;52.73;100801.72;5011789;28;20056;-73
2021/12/23 08:40:51;;;;;;;54.25;25.33;;;;;;;-0.71;53.06;100798.41;5014767;28;20045;-73
2021/12/23 08:43:18;;;;;;;49.97;24.27;;;;;;;-0.98;53.15;100788.50;5014716;28;20045;-73
2021/12/23 08:45:44;;;;;;;57.72;24.15;;;;;;;-0.96;53.53;100785.75;5012632;28;20124;-73
2021/12/23 08:48:11;;;;;;;50.20;23.75;;;;;;;-0.28;52.51;100774.91;5012668;28;20046;-73
2021/12/23 08:50:37;;;;;;;49.17;24.25;;;;;;;-0.88;53.45;100774.78;5013277;28;20061;-73
2021/12/23 08:53:04;;;;;;;51.13;24.75;;;;;;;-0.66;52.93;100780.56;5014063;28;20149;-73
2021/12/23 08:55:33;;;;;;;49.88;23.42;;;;;;;-0.81;52.52;100768.28;5012587;28;20109;-73
2021/12/23 08:58:04;;;;;;;46.80;22.52;;;;;;;-0.87;53.80;100776.50;5013745;28;20128;-73
2021/12/23 09:00:32;;;;;;;49.72;24.45;;;;;;;-0.47;52.41;100765.44;5013175;28;20446;-73
2021/12/23 09:02:59;;;;;;;47.15;23.48;;;;;;;-0.23;51.85;100768.41;5013546;28;20129;-73
2021/12/23 09:05:26;;;;;;;46.67;23.33;;;;;;;-0.06;51.23;100758.66;5011814;28;20469;-73
2021/12/23 09:07:53;;;;;;;50.35;24.70;;;;;;;-0.55;52.33;100762.38;5016321;28;20057;-73
2021/12/23 09:10:21;;;;;;;52.10;23.15;;;;;;;-1.01;53.38;100754.44;5016498;28;20072;-73
2021/12/23 09:12:47;;;;;;;50.53;22.63;;;;;;;-0.66;52.79;100741.91;5016391;28;20054;-73
2021/12/23 09:15:14;;;;;;;44.95;22.83;;;;;;;-0.59;52.78;100731.84;5016512;28;20080;-73
2021/12/23 09:17:40;;;;;;;50.90;24.80;;;;;;;-0.91;53.49;100731.91;5014999;28;20462;-73
2021/12/23 09:20:09;;;;;;;50.97;24.05;;;;;;;-1.41;54.71;100719.75;5016053;28;20050;-73
2021/12/23 09:22:36;;;;;;;57.17;23.90;;;;;;;-1.09;54.33;100732.94;5015937;28;20052;-73
2021/12/23 09:25:10;;;;;;;51.80;21.85;;;;;;;-0.55;52.52;100722.84;5016020;28;20474;-76
2021/12/23 09:28:10;;;;;;;54.00;24.02;;;;;;;-0.70;52.82;100710.56;5015409;28;20046;-75
2021/12/23 09:33:24;;;;;;;59.72;24.23;;;;;;;-1.15;54.33;100704.31;5016350;28;20045;-75
2021/12/23 09:35:52;;;;;;;56.40;25.02;;;;;;;-0.27;52.19;100687.78;5016830;28;20077;-75
2021/12/23 09:38:26;;;;;;;51.55;23.92;;;;;;;-0.67;53.14;100681.41;5015097;28;20072;-75
2021/12/23 09:40:58;;;;;;;44.22;22.40;;;;;;;-0.83;53.78;100677.94;5015021;28;20053;-75
2021/12/23 09:43:27;;;;;;;49.13;22.65;;;;;;;-0.80;53.15;100673.34;5014359;28;20046;-75
2021/12/23 09:45:54;;;;;;;42.03;21.15;;;;;;;-1.13;54.24;100662.94;5014655;28;20042;-75
2021/12/23 09:48:22;;;;;;;49.47;23.52;;;;;;;-0.74;53.44;100664.25;5015731;28;20053;-75
2021/12/23 09:50:50;;;;;;;52.40;24.30;;;;;;;-0.44;52.81;100661.59;5015159;28;20046;-75
2021/12/23 09:53:18;;;;;;;48.50;21.63;;;;;;;-0.75;53.00;100665.19;5014995;28;20080;-76
2021/12/23 09:55:46;;;;;;;43.85;21.15;;;;;;;-0.34;52.77;100664.53;5016529;28;20100;-75
2021/12/23 09:58:12;;;;;;;50.95;23.30;;;;;;;-0.14;52.31;100652.81;5014930;28;20072;-76
2021/12/23 10:00:45;;;;;;;51.80;21.67;;;;;;;-0.50;52.71;100639.09;5014684;28;20136;-75
2021/12/23 10:03:17;;;;;;;48.22;23.05;;;;;;;-0.01;51.38;100635.28;5014322;28;20042;-75
2021/12/23 10:05:44;;;;;;;46.63;21.80;;;;;;;-0.48;52.58;100626.66;5014723;28;20133;-75
2021/12/23 10:08:12;;;;;;;52.05;22.42;;;;;;;-0.02;51.56;100621.25;5015606;28;20133;-75
2021/12/23 10:10:52;;;;;;;46.45;21.73;;;;;;;0.03;51.50;100621.81;5013224;28;20050;-75
2021/12/23 10:28:16;;;;;;;41.50;19.63;;;;;;;-0.28;51.86;100545.53;5013616;28;20048;-75
2021/12/23 10:38:22;;;;;;;;;;;;;;;-0.06;52.01;100516.88;5014350;28;20133;-75
2021/12/23 10:40:51;;;;;;;37.63;18.65;;;;;;;-0.32;52.20;100500.09;5016120;28;20000;-75
2021/12/23 10:43:31;;;;;;;49.67;20.65;;;;;;;-0.34;52.91;100480.03;5019702;28;20517;-75
2021/12/23 10:46:03;;;;;;;43.10;20.13;;;;;;;-0.20;52.60;100474.72;5014658;28;20525;-75
2021/12/23 10:48:33;;;;;;;41.70;18.40;;;;;;;-0.93;53.11;100461.69;5014963;28;20061;-75
2021/12/23 10:51:08;;;;;;;47.08;19.00;;;;;;;-0.43;53.02;100445.41;5015632;28;20453;-75
2021/12/23 10:53:55;;;;;;;40.08;19.80;;;;;;;-0.47;52.51;100437.75;5013725;28;20455;-76
2021/12/23 10:59:23;;;;;;;35.72;17.25;;;;;;;-0.02;51.49;100434.00;5014405;28;20038;-75
2021/12/23 11:02:14;;;;;;;38.72;18.55;;;;;;;-0.23;51.87;100433.56;5014875;28;20096;-75
2021/12/23 11:05:24;;;;;;;36.70;18.08;;;;;;;-0.00;51.66;100426.00;5015327;28;20478;-75
2021/12/23 11:28:54;;;;;;;32.42;15.57;;;;;;;0.09;51.49;100395.53;5013694;28;20161;-75
2021/12/23 11:35:47;;;;;;;36.03;15.60;;;;;;;0.24;51.32;100415.63;5012417;28;19944;-75
2021/12/23 11:39:29;;;;;;;35.67;16.40;;;;;;;0.66;50.43;100406.63;5013579;28;20070;-76
2021/12/23 11:42:23;;;;;;;32.08;15.60;;;;;;;0.47;51.15;100417.59;5013716;28;20467;-75
2021/12/23 11:44:45;;;;;;;33.92;16.80;;;;;;;0.83;50.12;100410.75;5012044;28;20132;-75
2021/12/23 11:47:15;;;;;;;33.80;16.77;;;;;;;0.52;50.36;100394.34;5013362;28;20065;-75
2021/12/23 11:49:44;;;;;;;31.27;16.42;;;;;;;0.58;50.96;100427.44;5011384;28;20050;-76
2021/12/23 11:52:11;;;;;;;34.80;15.90;;;;;;;1.18;49.43;100412.75;5012105;28;20487;-75
2021/12/23 11:54:41;;;;;;;35.25;16.88;;;;;;;1.01;49.36;100406.84;5011878;28;20129;-75
2021/12/23 11:57:13;;;;;;;34.20;17.02;;;;;;;0.94;49.80;100384.44;5012292;28;20046;-76
2021/12/23 11:59:42;;;;;;;33.97;15.93;;;;;;;0.85;49.74;100385.09;5013177;28;20201;-76
2021/12/23 12:02:20;;;;;;;31.17;16.13;;;;;;;1.18;48.67;100373.97;5012146;28;20088;-76
2021/12/23 12:04:57;;;;;;;38.55;15.88;;;;;;;1.15;48.84;100368.03;5013463;28;20054;-75
2021/12/23 12:07:24;;;;;;;31.05;16.17;;;;;;;1.59;48.16;100369.31;5013146;28;20130;-77
2021/12/23 12:10:06;;;;;;;33.85;16.08;;;;;;;2.45;45.94;100355.06;5012476;28;20085;-77
2021/12/23 12:12:35;;;;;;;33.10;15.25;;;;;;;1.77;46.78;100338.88;5012482;28;20061;-77
2021/12/23 12:15:03;;;;;;;28.65;14.88;;;;;;;1.13;48.11;100346.19;5012878;28;20132;-76
2021/12/23 12:17:36;;;;;;;33.22;15.23;;;;;;;1.65;46.92;100345.94;5012323;28;20049;-75